createdAt,value
2018-02-08T00:00:26.788Z,1.70
2018-02-08T00:02:55.199Z,1.70
2018-02-08T00:05:22.671Z,1.70
2018-02-08T00:07:50.619Z,1.70
2018-02-08T00:10:18.047Z,1.70
2018-02-08T00:12:45.520Z,1.70
2018-02-08T00:15:13.095Z,1.70
2018-02-08T00:17:40.551Z,1.70
2018-02-08T00:20:08.019Z,1.70
2018-02-08T00:22:45.135Z,1.70
2018-02-08T00:25:12.648Z,1.70
2018-02-08T00:27:40.115Z,1.70
2018-02-08T00:30:07.579Z,1.70
2018-02-08T00:32:35.028Z,1.70
2018-02-08T00:35:02.606Z,1.70
2018-02-08T00:37:30.035Z,1.60
2018-02-08T00:39:57.496Z,1.60
2018-02-08T00:42:24.950Z,1.60
2018-02-08T00:44:52.381Z,1.60
2018-02-08T00:47:19.862Z,1.60
2018-02-08T00:49:47.323Z,1.70
2018-02-08T00:52:14.949Z,1.70
2018-02-08T00:54:42.443Z,1.70
2018-02-08T00:57:09.994Z,1.70
2018-02-08T00:59:37.453Z,1.70
2018-02-08T01:02:04.876Z,1.70
2018-02-08T01:04:32.357Z,1.60
2018-02-08T01:06:59.817Z,1.70
2018-02-08T01:09:27.235Z,1.70
2018-02-08T01:11:54.736Z,1.70
2018-02-08T01:14:22.174Z,1.70
2018-02-08T01:16:49.599Z,1.70
2018-02-08T01:19:17.100Z,1.70
2018-02-08T01:21:45.476Z,1.70
2018-02-08T01:24:13.108Z,1.70
2018-02-08T01:26:40.709Z,1.70
2018-02-08T01:29:08.460Z,1.70
2018-02-08T01:31:36.098Z,1.60
2018-02-08T01:34:03.584Z,1.60
2018-02-08T01:36:31.126Z,1.60
2018-02-08T01:38:58.628Z,1.60
2018-02-08T01:41:26.072Z,1.60
2018-02-08T01:43:53.501Z,1.60
2018-02-08T01:46:20.955Z,1.60
2018-02-08T01:48:48.411Z,1.60
2018-02-08T01:51:15.868Z,1.60
2018-02-08T01:53:43.305Z,1.60
2018-02-08T01:56:10.779Z,1.60
2018-02-08T01:58:38.184Z,1.60
2018-02-08T02:01:05.692Z,1.60
2018-02-08T02:03:33.156Z,1.60
2018-02-08T02:06:00.607Z,1.60
2018-02-08T02:08:28.035Z,1.60
2018-02-08T02:10:56.439Z,1.60
2018-02-08T02:13:23.885Z,1.60
2018-02-08T02:15:51.359Z,1.60
2018-02-08T02:18:18.776Z,1.60
2018-02-08T02:20:46.211Z,1.60
2018-02-08T02:23:14.544Z,1.60
2018-02-08T02:25:41.988Z,1.60
2018-02-08T02:28:09.419Z,1.60
2018-02-08T02:30:36.892Z,1.60
2018-02-08T02:33:04.528Z,1.60
2018-02-08T02:35:31.939Z,1.60
2018-02-08T02:37:59.383Z,1.60
2018-02-08T02:40:26.835Z,1.60
2018-02-08T02:42:54.284Z,1.60
2018-02-08T02:45:21.748Z,1.60
2018-02-08T02:47:49.177Z,1.60
2018-02-08T02:50:17.576Z,1.60
2018-02-08T02:52:45.039Z,1.60
2018-02-08T02:55:12.463Z,1.60
2018-02-08T02:57:39.892Z,1.60
2018-02-08T03:00:07.320Z,1.60
2018-02-08T03:02:34.944Z,1.60
2018-02-08T03:05:02.516Z,1.50
2018-02-08T03:07:29.948Z,1.50
2018-02-08T03:09:57.561Z,1.50
2018-02-08T03:12:25.199Z,1.50
2018-02-08T03:14:52.765Z,1.50
2018-02-08T03:17:20.533Z,1.50
2018-02-08T03:19:47.960Z,1.50
2018-02-08T03:22:15.391Z,1.50
2018-02-08T03:24:42.815Z,1.50
2018-02-08T03:27:10.298Z,1.50
2018-02-08T03:29:37.726Z,1.50
2018-02-08T03:32:05.171Z,1.50
2018-02-08T03:34:32.594Z,1.50
2018-02-08T03:37:00.175Z,1.50
2018-02-08T03:39:27.927Z,1.50
2018-02-08T03:41:55.359Z,1.50
2018-02-08T03:44:22.789Z,1.50
2018-02-08T03:46:50.312Z,1.50
2018-02-08T03:49:17.950Z,1.50
2018-02-08T03:51:45.375Z,1.50
2018-02-08T03:54:13.568Z,1.50
2018-02-08T03:56:41.051Z,1.50
2018-02-08T03:59:08.480Z,1.50
2018-02-08T04:01:35.919Z,1.50
2018-02-08T04:04:03.349Z,1.50
2018-02-08T04:06:30.794Z,1.50
2018-02-08T04:08:58.339Z,1.50
2018-02-08T04:11:25.796Z,1.50
2018-02-08T04:13:53.567Z,1.50
2018-02-08T04:16:21.094Z,1.50
2018-02-08T04:18:48.645Z,1.50
2018-02-08T04:21:16.226Z,1.50
2018-02-08T04:23:43.688Z,1.50
2018-02-08T04:26:11.364Z,1.50
2018-02-08T04:28:38.799Z,1.50
2018-02-08T04:31:06.295Z,1.50
2018-02-08T04:33:33.820Z,1.50
2018-02-08T04:36:01.456Z,1.50
2018-02-08T04:38:40.717Z,1.50
2018-02-08T04:41:20.147Z,1.50
2018-02-08T04:43:59.201Z,1.50
2018-02-08T04:46:38.742Z,1.50
2018-02-08T04:49:06.348Z,1.50
2018-02-08T04:51:33.771Z,1.50
2018-02-08T04:54:01.196Z,1.50
2018-02-08T04:56:28.818Z,1.50
2018-02-08T04:58:56.244Z,1.50
2018-02-08T05:01:23.772Z,1.50
2018-02-08T05:03:51.224Z,1.50
2018-02-08T05:06:18.983Z,1.50
2018-02-08T05:08:46.410Z,1.50
2018-02-08T05:11:13.831Z,1.50
2018-02-08T05:13:41.360Z,1.50
2018-02-08T05:16:08.805Z,1.50
2018-02-08T05:18:36.243Z,1.40
2018-02-08T05:21:03.676Z,1.40
2018-02-08T05:23:31.174Z,1.50
2018-02-08T05:25:58.938Z,1.40
2018-02-08T05:28:26.382Z,1.50
2018-02-08T05:30:53.815Z,1.40
2018-02-08T05:33:21.259Z,1.40
2018-02-08T05:35:48.743Z,1.40
2018-02-08T05:38:16.200Z,1.40
2018-02-08T05:40:43.607Z,1.40
2018-02-08T05:43:11.128Z,1.40
2018-02-08T05:45:38.552Z,1.40
2018-02-08T05:48:05.984Z,1.40
2018-02-08T05:50:33.495Z,1.40
2018-02-08T05:53:00.948Z,1.40
2018-02-08T05:55:28.363Z,1.40
2018-02-08T05:57:55.793Z,1.40
2018-02-08T06:00:23.269Z,1.40
2018-02-08T06:02:50.732Z,1.40
2018-02-08T06:05:18.163Z,1.40
2018-02-08T06:07:45.692Z,1.40
2018-02-08T06:10:13.116Z,1.30
2018-02-08T06:12:40.644Z,1.30
2018-02-08T06:15:08.363Z,1.30
2018-02-08T06:17:35.799Z,1.30
2018-02-08T06:20:03.304Z,1.30
2018-02-08T06:22:30.928Z,1.30
2018-02-08T06:24:58.439Z,1.30
2018-02-08T06:27:25.959Z,1.30
2018-02-08T06:29:53.495Z,1.30
2018-02-08T06:32:20.971Z,1.20
2018-02-08T06:34:48.647Z,1.20
2018-02-08T06:37:16.107Z,1.20
2018-02-08T06:39:43.848Z,1.20
2018-02-08T06:42:11.281Z,1.20
2018-02-08T06:44:38.784Z,1.20
2018-02-08T06:47:06.212Z,1.20
2018-02-08T06:49:33.651Z,1.20
2018-02-08T06:52:01.101Z,1.10
2018-02-08T06:54:28.523Z,1.10
2018-02-08T06:56:55.954Z,1.10
2018-02-08T06:59:23.508Z,1.10
2018-02-08T07:01:50.958Z,1.00
2018-02-08T07:04:18.392Z,1.00
2018-02-08T07:06:45.820Z,1.00
2018-02-08T07:09:13.259Z,1.00
2018-02-08T07:11:40.783Z,1.00
2018-02-08T07:14:08.547Z,1.00
2018-02-08T07:16:36.073Z,0.90
2018-02-08T07:19:03.653Z,0.90
2018-02-08T07:21:31.092Z,0.90
2018-02-08T07:23:58.509Z,0.90
2018-02-08T07:26:26.129Z,0.90
2018-02-08T07:28:53.548Z,0.90
2018-02-08T07:31:20.979Z,0.90
2018-02-08T07:33:48.408Z,1.00
2018-02-08T07:36:15.975Z,0.90
2018-02-08T07:38:43.405Z,0.90
2018-02-08T07:41:10.892Z,0.90
2018-02-08T07:43:38.331Z,1.00
2018-02-08T07:46:05.795Z,1.00
2018-02-08T07:48:33.547Z,1.00
2018-02-08T07:51:00.995Z,1.00
2018-02-08T07:53:28.415Z,1.00
2018-02-08T07:55:55.922Z,1.00
2018-02-08T07:58:23.343Z,1.00
2018-02-08T08:00:50.772Z,1.10
2018-02-08T08:03:18.199Z,1.00
2018-02-08T08:05:45.653Z,1.10
2018-02-08T08:08:13.079Z,1.10
2018-02-08T08:10:40.511Z,1.10
2018-02-08T08:13:08.744Z,1.00
2018-02-08T08:15:36.168Z,1.10
2018-02-08T08:18:03.644Z,1.00
2018-02-08T08:20:31.089Z,1.00
2018-02-08T08:22:58.555Z,1.00
2018-02-08T08:25:26.084Z,1.00
2018-02-08T08:27:53.684Z,1.00
2018-02-08T08:30:21.136Z,1.00
2018-02-08T08:32:48.583Z,1.00
2018-02-08T08:35:16.041Z,1.00
2018-02-08T08:37:43.600Z,1.00
2018-02-08T08:40:11.063Z,1.10
2018-02-08T08:42:38.507Z,1.10
2018-02-08T08:45:05.938Z,1.20
2018-02-08T08:47:33.427Z,1.20
2018-02-08T08:50:00.871Z,1.20
2018-02-08T08:52:28.306Z,1.20
2018-02-08T08:54:55.792Z,1.20
2018-02-08T08:57:23.243Z,1.30
2018-02-08T08:59:50.664Z,1.30
2018-02-08T09:02:18.092Z,1.40
2018-02-08T09:04:45.528Z,1.40
2018-02-08T09:07:12.979Z,1.50
2018-02-08T09:09:40.444Z,1.50
2018-02-08T09:12:07.968Z,1.60
2018-02-08T09:14:35.418Z,1.70
2018-02-08T09:17:03.061Z,1.80
2018-02-08T09:19:31.296Z,1.90
2018-02-08T09:21:58.912Z,1.90
2018-02-08T09:24:26.387Z,2.00
2018-02-08T09:26:53.954Z,2.20
2018-02-08T09:29:21.379Z,2.20
2018-02-08T09:31:48.803Z,2.40
2018-02-08T09:34:16.236Z,2.50
2018-02-08T09:36:43.749Z,2.50
2018-02-08T09:39:11.168Z,2.70
2018-02-08T09:41:38.618Z,2.90
2018-02-08T09:44:06.149Z,3.00
2018-02-08T09:46:33.576Z,3.10
2018-02-08T09:49:01.003Z,3.10
2018-02-08T09:51:28.440Z,3.30
2018-02-08T09:53:55.969Z,3.50
2018-02-08T09:56:23.421Z,3.60
2018-02-08T09:58:50.895Z,3.80
2018-02-08T10:01:18.648Z,3.90
2018-02-08T10:03:46.099Z,4.10
2018-02-08T10:06:13.546Z,4.10
2018-02-08T10:08:41.026Z,4.30
2018-02-08T10:11:08.473Z,4.30
2018-02-08T10:13:35.922Z,4.20
2018-02-08T10:16:03.360Z,4.20
2018-02-08T10:18:30.843Z,4.10
2018-02-08T10:20:58.284Z,4.10
2018-02-08T10:23:25.752Z,4.10
2018-02-08T10:25:53.202Z,4.10
2018-02-08T10:28:20.634Z,4.10
2018-02-08T10:30:48.156Z,4.10
2018-02-08T10:33:15.579Z,4.00
2018-02-08T10:35:43.316Z,4.10
2018-02-08T10:38:10.803Z,4.00
2018-02-08T10:40:38.335Z,4.00
2018-02-08T10:43:06.000Z,4.30
2018-02-08T10:45:33.471Z,4.50
2018-02-08T10:48:01.155Z,4.60
2018-02-08T10:50:28.692Z,4.80
2018-02-08T10:52:56.507Z,4.90
2018-02-08T10:55:23.935Z,5.20
2018-02-08T10:57:51.436Z,5.30
2018-02-08T11:00:18.826Z,5.50
2018-02-08T11:02:46.271Z,5.60
2018-02-08T11:05:13.735Z,5.90
2018-02-08T11:07:41.174Z,5.90
2018-02-08T11:10:08.596Z,6.10
2018-02-08T11:12:36.115Z,6.30
2018-02-08T11:15:03.555Z,6.30
2018-02-08T11:17:31.322Z,6.40
2018-02-08T11:19:58.839Z,6.70
2018-02-08T11:22:26.463Z,6.70
2018-02-08T11:24:53.888Z,6.80
2018-02-08T11:27:21.657Z,6.80
2018-02-08T11:29:49.113Z,6.80
2018-02-08T11:32:16.615Z,6.90
2018-02-08T11:34:44.124Z,7.00
2018-02-08T11:37:11.591Z,6.90
2018-02-08T11:39:39.236Z,6.90
2018-02-08T11:42:06.795Z,7.10
2018-02-08T11:44:34.268Z,7.40
2018-02-08T11:47:03.322Z,7.40
2018-02-08T11:49:31.964Z,7.40
2018-02-08T11:51:59.897Z,7.50
2018-02-08T11:54:29.215Z,7.70
2018-02-08T11:56:56.777Z,7.70
2018-02-08T11:59:24.229Z,7.90
2018-02-08T12:01:51.858Z,8.00
2018-02-08T12:04:19.307Z,8.00
2018-02-08T12:06:46.903Z,8.00
2018-02-08T12:09:14.332Z,7.90
2018-02-08T12:11:41.772Z,8.00
2018-02-08T12:14:09.202Z,8.10
2018-02-08T12:16:36.641Z,8.00
2018-02-08T12:19:04.183Z,8.20
2018-02-08T12:21:31.612Z,8.30
2018-02-08T12:23:59.175Z,8.20
2018-02-08T12:26:26.859Z,8.30
2018-02-08T12:28:54.283Z,8.40
2018-02-08T12:31:21.770Z,8.40
2018-02-08T12:33:49.229Z,8.40
2018-02-08T12:36:17.604Z,8.60
2018-02-08T12:38:45.047Z,8.60
2018-02-08T12:41:12.521Z,8.90
2018-02-08T12:43:39.952Z,9.00
2018-02-08T12:46:07.433Z,9.30
2018-02-08T12:48:34.883Z,9.10
2018-02-08T12:51:02.348Z,8.90
2018-02-08T12:53:29.783Z,8.80
2018-02-08T12:55:57.202Z,8.60
2018-02-08T12:58:24.631Z,8.80
2018-02-08T13:00:52.072Z,9.10
2018-02-08T13:03:19.541Z,9.10
2018-02-08T13:05:47.084Z,9.40
2018-02-08T13:08:14.738Z,9.50
2018-02-08T13:10:42.184Z,9.40
2018-02-08T13:13:10.371Z,9.20
2018-02-08T13:15:37.804Z,9.20
2018-02-08T13:18:05.228Z,9.00
2018-02-08T13:20:32.690Z,9.00
2018-02-08T13:23:00.107Z,9.30
2018-02-08T13:25:27.688Z,9.60
2018-02-08T13:27:56.636Z,10.60
2018-02-08T13:30:24.100Z,10.60
2018-02-08T13:32:51.603Z,11.30
2018-02-08T13:35:19.060Z,11.60
2018-02-08T13:37:47.990Z,13.10
2018-02-08T13:40:17.198Z,13.10
2018-02-08T13:42:44.637Z,12.90
2018-02-08T13:45:12.127Z,13.20
2018-02-08T13:47:45.159Z,13.20
2018-02-08T13:50:18.287Z,14.00
2018-02-08T13:52:51.332Z,14.40
2018-02-08T13:58:33.548Z,14.20
2018-02-08T14:04:04.140Z,14.20
2018-02-08T14:06:31.565Z,14.20
2018-02-08T14:08:59.780Z,14.30
2018-02-08T14:11:27.198Z,14.20
2018-02-08T14:13:54.635Z,14.20
2018-02-08T14:16:22.151Z,14.20
2018-02-08T14:18:49.911Z,14.20
2018-02-08T14:21:17.371Z,14.10
2018-02-08T14:23:44.857Z,14.40
2018-02-08T14:26:12.471Z,14.30
2018-02-08T14:28:39.948Z,14.20
2018-02-08T14:31:07.503Z,13.80
2018-02-08T14:33:34.966Z,13.90
2018-02-08T14:36:02.719Z,14.00
2018-02-08T14:38:30.181Z,13.70
2018-02-08T14:40:57.627Z,12.90
2018-02-08T14:43:25.051Z,12.70
2018-02-08T14:45:52.571Z,12.90
2018-02-08T14:48:19.994Z,12.70
2018-02-08T14:50:47.455Z,12.40
2018-02-08T14:53:14.886Z,12.20
2018-02-08T14:55:42.375Z,11.50
2018-02-08T14:58:09.806Z,11.10
2018-02-08T15:00:37.488Z,10.30
2018-02-08T15:03:04.917Z,9.80
2018-02-08T15:05:32.498Z,9.60
2018-02-08T15:08:00.068Z,9.00
2018-02-08T15:10:27.497Z,8.60
2018-02-08T15:12:55.133Z,8.30
2018-02-08T15:15:22.559Z,8.10
2018-02-08T15:17:50.048Z,8.00
2018-02-08T15:20:17.543Z,7.80
2018-02-08T15:22:45.081Z,7.70
2018-02-08T15:25:12.657Z,7.60
2018-02-08T15:27:40.227Z,7.50
2018-02-08T15:30:07.923Z,7.30
2018-02-08T15:32:35.439Z,7.10
2018-02-08T15:35:02.880Z,7.00
2018-02-08T15:37:30.318Z,6.80
2018-02-08T15:39:57.813Z,6.70
2018-02-08T15:42:25.256Z,6.50
2018-02-08T15:44:52.671Z,6.40
2018-02-08T15:47:20.111Z,6.30
2018-02-08T15:49:48.314Z,6.10
2018-02-08T15:52:16.011Z,6.00
2018-02-08T15:54:43.787Z,6.00
2018-02-08T15:57:11.411Z,5.80
2018-02-08T15:59:38.904Z,5.70
2018-02-08T16:02:06.340Z,5.60
2018-02-08T16:04:33.848Z,5.50
2018-02-08T16:07:01.287Z,5.30
2018-02-08T16:09:28.835Z,5.30
2018-02-08T16:11:56.287Z,5.20
2018-02-08T16:14:23.923Z,5.00
2018-02-08T16:16:51.359Z,4.90
2018-02-08T16:19:18.809Z,4.80
2018-02-08T16:21:47.004Z,4.60
2018-02-08T16:24:14.487Z,4.60
2018-02-08T16:26:42.115Z,4.50
2018-02-08T16:29:09.699Z,4.50
2018-02-08T16:31:37.131Z,4.40
2018-02-08T16:34:04.576Z,4.30
2018-02-08T16:36:32.068Z,4.20
2018-02-08T16:38:59.536Z,4.10
2018-02-08T16:41:26.983Z,4.00
2018-02-08T16:43:54.627Z,3.90
2018-02-08T16:46:22.139Z,3.80
2018-02-08T16:48:49.570Z,3.70
2018-02-08T16:51:17.115Z,3.60
2018-02-08T16:53:44.875Z,3.60
2018-02-08T16:56:12.536Z,3.50
2018-02-08T16:58:39.956Z,3.50
2018-02-08T17:01:08.153Z,3.40
2018-02-08T17:03:35.577Z,3.40
2018-02-08T17:06:03.087Z,3.40
2018-02-08T17:08:30.536Z,3.30
2018-02-08T17:10:57.972Z,3.20
2018-02-08T17:13:25.400Z,3.20
2018-02-08T17:15:52.924Z,3.20
2018-02-08T17:18:20.375Z,3.20
2018-02-08T17:20:47.827Z,3.20
2018-02-08T17:23:15.468Z,3.10
2018-02-08T17:25:42.895Z,3.10
2018-02-08T17:28:11.127Z,3.00
2018-02-08T17:30:38.771Z,3.00
2018-02-08T17:33:06.347Z,2.80
2018-02-08T17:35:33.805Z,2.80
2018-02-08T17:38:01.436Z,2.80
2018-02-08T17:40:28.907Z,2.80
2018-02-08T17:42:56.466Z,2.80
2018-02-08T17:45:23.919Z,2.70
2018-02-08T17:47:51.358Z,2.60
2018-02-08T17:50:18.865Z,2.60
2018-02-08T17:52:46.300Z,2.50
2018-02-08T17:55:13.778Z,2.50
2018-02-08T17:57:41.388Z,2.50
2018-02-08T18:00:08.827Z,2.50
2018-02-08T18:02:36.335Z,2.40
2018-02-08T18:05:03.767Z,2.40
2018-02-08T18:07:31.203Z,2.30
2018-02-08T18:09:58.175Z,2.20
2018-02-08T18:12:25.559Z,2.20
2018-02-08T18:14:52.540Z,2.10
2018-02-08T18:17:19.860Z,2.00
2018-02-08T18:19:46.893Z,2.00
2018-02-08T18:22:14.273Z,2.00
2018-02-08T18:24:41.986Z,2.00
2018-02-08T18:27:09.485Z,2.00
2018-02-08T18:29:37.208Z,2.00
2018-02-08T18:32:04.636Z,2.00
2018-02-08T18:34:32.070Z,2.00
2018-02-08T18:36:59.063Z,2.00
2018-02-08T18:39:26.338Z,2.00
2018-02-08T18:41:53.311Z,1.90
2018-02-08T18:44:20.301Z,1.90
2018-02-08T18:46:47.272Z,1.90
2018-02-08T18:49:14.260Z,1.90
2018-02-08T18:51:42.012Z,1.90
2018-02-08T18:54:09.251Z,1.80
2018-02-08T18:56:37.346Z,1.80
2018-02-08T18:59:04.451Z,1.70
2018-02-08T19:01:32.644Z,1.70
2018-02-08T19:03:59.651Z,1.60
2018-02-08T19:06:26.627Z,1.60
2018-02-08T19:08:53.672Z,1.60
2018-02-08T19:11:20.810Z,1.50
2018-02-08T19:13:47.783Z,1.50
2018-02-08T19:16:14.910Z,1.40
2018-02-08T19:18:42.964Z,1.40
2018-02-08T19:21:10.124Z,1.40
2018-02-08T19:23:37.317Z,1.40
2018-02-08T19:26:04.318Z,1.30
2018-02-08T19:28:31.286Z,1.30
2018-02-08T19:30:58.418Z,1.20
2018-02-08T19:33:25.411Z,1.20
2018-02-08T19:35:53.358Z,1.00
2018-02-08T19:38:20.453Z,1.00
2018-02-08T19:40:47.409Z,1.00
2018-02-08T19:43:14.679Z,1.00
2018-02-08T19:45:41.651Z,0.90
2018-02-08T19:48:08.667Z,0.90
2018-02-08T19:50:35.638Z,0.90
2018-02-08T19:53:02.651Z,0.90
2018-02-08T19:55:29.631Z,0.80
2018-02-08T19:57:57.065Z,0.80
2018-02-08T20:00:24.514Z,0.80
2018-02-08T20:02:51.982Z,0.80
2018-02-08T20:05:19.708Z,0.70
2018-02-08T20:07:47.167Z,0.70
2018-02-08T20:10:14.626Z,0.60
2018-02-08T20:12:42.975Z,0.50
2018-02-08T20:15:11.071Z,0.50
2018-02-08T20:17:38.532Z,0.50
2018-02-08T20:20:06.299Z,0.50
2018-02-08T20:22:33.751Z,0.40
2018-02-08T20:25:01.219Z,0.40
2018-02-08T20:27:28.789Z,0.40
2018-02-08T20:29:56.322Z,0.30
2018-02-08T20:32:23.821Z,0.30
2018-02-08T20:34:51.255Z,0.30
2018-02-08T20:37:18.694Z,0.30
2018-02-08T20:39:46.252Z,0.30
2018-02-08T20:45:12.862Z,0.30
2018-02-08T20:47:40.470Z,0.30
2018-02-08T20:50:07.908Z,0.20
2018-02-08T20:52:35.480Z,0.20
2018-02-08T20:55:02.917Z,0.20
2018-02-08T20:57:30.339Z,0.30
2018-02-08T20:59:57.839Z,0.30
2018-02-08T21:02:25.259Z,0.20
2018-02-08T21:04:52.764Z,0.20
2018-02-08T21:07:20.190Z,0.20
2018-02-08T21:09:47.622Z,0.20
2018-02-08T21:12:15.061Z,0.10
2018-02-08T21:14:42.595Z,0.10
2018-02-08T21:17:10.020Z,0.10
2018-02-08T21:19:37.695Z,0.10
2018-02-08T21:22:05.123Z,0.20
2018-02-08T21:24:32.647Z,0.20
2018-02-08T21:27:01.096Z,0.20
2018-02-08T21:29:28.737Z,0.20
2018-02-08T21:31:56.322Z,0.20
2018-02-08T21:34:24.392Z,0.20
2018-02-08T21:36:52.023Z,0.20
2018-02-08T21:39:19.618Z,0.20
2018-02-08T21:41:47.249Z,0.10
2018-02-08T21:44:15.437Z,0.10
2018-02-08T21:46:42.919Z,0.10
2018-02-08T21:49:10.565Z,0.10
2018-02-08T21:51:38.009Z,0.10
2018-02-08T21:54:05.584Z,0.10
2018-02-08T21:56:33.335Z,0.10
2018-02-08T21:59:00.790Z,0.10
2018-02-08T22:01:28.259Z,0.10
2018-02-08T22:03:55.704Z,0.10
2018-02-08T22:06:23.384Z,0.10
2018-02-08T22:08:50.927Z,0.10
2018-02-08T22:11:18.404Z,0.10
2018-02-08T22:13:46.011Z,0.10
2018-02-08T22:16:13.531Z,0.10
2018-02-08T22:18:41.136Z,0.10
2018-02-08T22:21:08.818Z,0.10
2018-02-08T22:23:36.247Z,0.10
2018-02-08T22:26:03.676Z,0.10
2018-02-08T22:28:31.108Z,0.10
2018-02-08T22:30:58.646Z,0.10
2018-02-08T22:33:26.150Z,0.10
2018-02-08T22:35:53.675Z,0.10
2018-02-08T22:38:21.106Z,0.00
2018-02-08T22:40:48.779Z,0.00
2018-02-08T22:43:16.540Z,0.00
2018-02-08T22:45:44.002Z,-0.10
2018-02-08T22:48:11.457Z,-0.10
2018-02-08T22:50:39.080Z,-0.10
2018-02-08T22:53:06.583Z,-0.10
2018-02-08T22:55:34.027Z,-0.10
2018-02-08T22:58:01.483Z,-0.10
2018-02-08T23:00:28.903Z,0.00
2018-02-08T23:02:56.639Z,0.00
2018-02-08T23:05:24.127Z,0.00
2018-02-08T23:07:51.739Z,-0.10
2018-02-08T23:10:19.366Z,-0.10
2018-02-08T23:12:46.832Z,0.00
2018-02-08T23:15:14.303Z,-0.10
2018-02-08T23:17:41.760Z,-0.10
2018-02-08T23:20:09.308Z,0.00
2018-02-08T23:22:36.768Z,0.10
2018-02-08T23:25:04.222Z,0.10
2018-02-08T23:27:31.666Z,0.10
2018-02-08T23:29:59.088Z,0.10
2018-02-08T23:32:26.583Z,0.10
2018-02-08T23:34:54.024Z,0.20
2018-02-08T23:37:21.539Z,0.20
2018-02-08T23:39:49.270Z,0.20
2018-02-08T23:42:16.687Z,0.20
2018-02-08T23:44:44.154Z,0.20
2018-02-08T23:47:12.467Z,0.30
2018-02-08T23:49:39.923Z,0.30
2018-02-08T23:52:07.376Z,0.30
2018-02-08T23:54:34.925Z,0.30
2018-02-08T23:57:02.555Z,0.40
2018-02-08T23:59:30.764Z,0.40
